createdAt,value
2018-12-13T00:01:31.040Z,3.30
2018-12-13T00:04:07.925Z,3.31
2018-12-13T00:06:44.743Z,3.18
2018-12-13T00:09:22.737Z,3.36
2018-12-13T00:12:01.109Z,3.39
2018-12-13T00:14:38.764Z,3.40
2018-12-13T00:17:18.218Z,3.42
2018-12-13T00:19:55.220Z,3.46
2018-12-13T00:22:32.804Z,3.48
2018-12-13T00:25:09.544Z,3.50
2018-12-13T00:27:46.245Z,3.51
2018-12-13T00:33:13.709Z,3.55
2018-12-13T00:35:50.393Z,3.57
2018-12-13T00:38:28.608Z,3.60
2018-12-13T00:41:06.883Z,3.60
2018-12-13T00:43:45.194Z,3.62
2018-12-13T00:46:23.272Z,3.63
2018-12-13T00:49:01.271Z,3.63
2018-12-13T00:51:41.328Z,3.65
2018-12-13T00:54:19.344Z,3.67
2018-12-13T00:56:57.522Z,3.66
2018-12-13T00:59:35.586Z,3.67
2018-12-13T01:02:13.134Z,3.68
2018-12-13T01:04:49.728Z,3.68
2018-12-13T01:07:26.584Z,3.67
2018-12-13T01:10:03.271Z,3.67
2018-12-13T01:12:42.355Z,3.70
2018-12-13T01:15:20.977Z,3.74
2018-12-13T01:18:00.119Z,3.80
2018-12-13T01:20:36.729Z,3.86
2018-12-13T01:23:17.100Z,3.90
2018-12-13T01:25:54.791Z,3.94
2018-12-13T01:28:31.623Z,3.96
2018-12-13T01:31:09.560Z,3.99
2018-12-13T01:33:48.591Z,4.01
2018-12-13T01:36:26.194Z,4.03
2018-12-13T01:39:02.936Z,4.03
2018-12-13T01:41:39.291Z,4.04
2018-12-13T01:44:17.419Z,4.05
2018-12-13T01:46:55.731Z,4.07
2018-12-13T01:49:37.544Z,4.09
2018-12-13T01:52:18.699Z,4.10
2018-12-13T01:54:57.161Z,4.12
2018-12-13T01:57:35.697Z,4.14
2018-12-13T02:00:13.916Z,4.16
2018-12-13T02:02:51.961Z,4.16
2018-12-13T02:05:31.528Z,4.18
2018-12-13T02:08:10.485Z,4.20
2018-12-13T02:10:58.541Z,4.20
2018-12-13T02:13:39.674Z,4.20
2018-12-13T02:16:18.288Z,4.19
2018-12-13T02:18:55.005Z,4.21
2018-12-13T02:21:33.070Z,4.21
2018-12-13T02:24:08.569Z,4.20
2018-12-13T02:26:45.016Z,4.20
2018-12-13T02:29:21.062Z,4.20
2018-12-13T02:31:56.972Z,4.19
2018-12-13T02:34:33.496Z,4.18
2018-12-13T02:37:17.905Z,4.15
2018-12-13T02:39:56.267Z,4.12
2018-12-13T02:42:31.652Z,4.10
2018-12-13T02:45:07.592Z,4.07
2018-12-13T02:47:45.234Z,4.05
2018-12-13T02:50:26.027Z,4.05
2018-12-13T02:53:03.754Z,4.04
2018-12-13T02:55:50.737Z,4.04
2018-12-13T02:58:29.052Z,4.03
2018-12-13T03:01:06.119Z,4.03
2018-12-13T03:03:52.906Z,3.99
2018-12-13T03:06:30.567Z,3.99
2018-12-13T03:09:08.333Z,3.97
2018-12-13T03:11:47.748Z,3.96
2018-12-13T03:14:25.605Z,3.94
2018-12-13T03:17:04.524Z,3.94
2018-12-13T03:19:40.898Z,3.93
2018-12-13T03:22:20.111Z,3.97
2018-12-13T03:24:58.318Z,4.02
2018-12-13T03:27:37.396Z,4.05
2018-12-13T03:30:16.935Z,4.09
2018-12-13T03:32:57.315Z,4.08
2018-12-13T03:35:37.375Z,4.09
2018-12-13T03:38:17.026Z,4.09
2018-12-13T03:40:53.828Z,4.09
2018-12-13T03:43:34.457Z,4.09
2018-12-13T03:46:14.127Z,4.09
2018-12-13T03:48:52.037Z,3.91
2018-12-13T03:51:35.201Z,4.06
2018-12-13T03:54:13.437Z,4.03
2018-12-13T03:56:51.082Z,4.00
2018-12-13T03:59:28.429Z,4.00
2018-12-13T04:02:10.250Z,3.99
2018-12-13T04:04:55.363Z,3.92
2018-12-13T04:07:31.974Z,3.81
2018-12-13T04:10:09.342Z,3.73
2018-12-13T04:15:34.269Z,3.71
2018-12-13T04:18:12.223Z,3.70
2018-12-13T04:20:49.338Z,3.68
2018-12-13T04:23:26.499Z,3.64
2018-12-13T04:26:03.233Z,3.66
2018-12-13T04:28:42.238Z,3.70
2018-12-13T04:31:20.455Z,3.73
2018-12-13T04:33:59.057Z,3.73
2018-12-13T04:36:37.990Z,3.73
2018-12-13T04:39:14.067Z,3.71
2018-12-13T04:41:51.344Z,3.67
2018-12-13T04:44:29.661Z,3.67
2018-12-13T04:47:07.056Z,3.69
2018-12-13T04:49:46.702Z,3.69
2018-12-13T04:52:25.117Z,3.62
2018-12-13T04:54:59.355Z,3.57
2018-12-13T04:57:42.327Z,3.48
2018-12-13T05:00:19.810Z,3.36
2018-12-13T05:02:59.431Z,3.24
2018-12-13T05:05:37.712Z,3.14
2018-12-13T05:08:14.195Z,3.10
2018-12-13T05:13:51.567Z,2.95
2018-12-13T05:16:29.751Z,2.93
2018-12-13T05:19:11.896Z,2.88
2018-12-13T05:21:54.679Z,2.79
2018-12-13T05:24:33.844Z,2.74
2018-12-13T05:27:10.135Z,2.69
2018-12-13T05:29:47.830Z,2.66
2018-12-13T05:32:27.051Z,2.64
2018-12-13T05:35:05.901Z,2.60
2018-12-13T05:37:48.223Z,2.57
2018-12-13T05:40:24.148Z,2.58
2018-12-13T05:42:57.996Z,2.65
2018-12-13T05:45:33.625Z,2.71
2018-12-13T05:48:11.387Z,2.77
2018-12-13T05:50:47.260Z,2.86
2018-12-13T05:53:22.510Z,2.97
2018-12-13T05:55:59.069Z,3.04
2018-12-13T05:58:36.621Z,3.16
2018-12-13T06:01:13.681Z,3.23
2018-12-13T06:03:45.781Z,3.29
2018-12-13T06:06:22.580Z,3.33
2018-12-13T06:09:00.999Z,3.34
2018-12-13T06:11:37.955Z,3.32
2018-12-13T06:14:10.010Z,3.27
2018-12-13T06:16:47.406Z,3.21
2018-12-13T06:19:26.682Z,3.15
2018-12-13T06:22:03.299Z,3.05
2018-12-13T06:24:40.236Z,2.97
2018-12-13T06:27:17.035Z,2.86
2018-12-13T06:29:58.767Z,2.76
2018-12-13T06:32:35.006Z,2.61
2018-12-13T06:35:13.190Z,2.51
2018-12-13T06:37:51.738Z,2.44
2018-12-13T06:40:28.348Z,2.39
2018-12-13T06:43:05.293Z,2.33
2018-12-13T06:45:43.154Z,2.26
2018-12-13T06:48:24.842Z,2.21
2018-12-13T06:51:02.711Z,2.18
2018-12-13T06:53:40.865Z,2.12
2018-12-13T06:56:15.213Z,2.05
2018-12-13T06:58:52.855Z,2.00
2018-12-13T07:01:26.457Z,1.95
2018-12-13T07:04:04.438Z,1.90
2018-12-13T07:06:44.047Z,1.84
2018-12-13T07:09:23.823Z,1.78
2018-12-13T07:11:59.832Z,1.75
2018-12-13T07:14:37.170Z,1.72
2018-12-13T07:17:14.627Z,1.70
2018-12-13T07:19:52.292Z,1.69
2018-12-13T07:22:29.996Z,1.69
2018-12-13T07:25:07.537Z,1.65
2018-12-13T07:27:45.226Z,1.63
2018-12-13T07:30:22.321Z,1.57
2018-12-13T07:33:06.352Z,1.54
2018-12-13T07:35:45.274Z,1.54
2018-12-13T07:38:22.982Z,1.53
2018-12-13T07:41:00.831Z,1.55
2018-12-13T07:43:37.726Z,1.55
2018-12-13T07:46:13.461Z,1.57
2018-12-13T07:48:56.430Z,1.68
2018-12-13T07:51:32.305Z,1.81
2018-12-13T07:54:09.866Z,1.94
2018-12-13T07:56:51.599Z,2.07
2018-12-13T07:59:28.883Z,2.18
2018-12-13T08:02:06.448Z,2.28
2018-12-13T08:04:42.875Z,2.39
2018-12-13T08:10:09.690Z,2.53
2018-12-13T08:12:45.811Z,2.60
2018-12-13T08:15:20.997Z,2.67
2018-12-13T08:17:57.282Z,2.77
2018-12-13T08:20:34.344Z,2.85
2018-12-13T08:25:59.212Z,3.00
2018-12-13T08:28:36.828Z,3.07
2018-12-13T08:31:14.850Z,3.15
2018-12-13T08:33:52.024Z,3.22
2018-12-13T08:36:28.423Z,3.29
2018-12-13T08:39:06.466Z,3.34
2018-12-13T08:41:45.196Z,3.41
2018-12-13T08:44:23.648Z,3.45
2018-12-13T08:46:59.950Z,3.53
2018-12-13T08:49:37.079Z,3.58
2018-12-13T08:52:17.505Z,3.64
2018-12-13T08:54:55.307Z,3.70
2018-12-13T08:57:33.109Z,3.76
2018-12-13T09:00:12.348Z,3.85
2018-12-13T09:02:50.081Z,3.92
2018-12-13T09:05:28.155Z,4.00
2018-12-13T09:08:05.903Z,4.06
2018-12-13T09:10:43.291Z,4.10
2018-12-13T09:13:18.356Z,4.14
2018-12-13T09:15:55.090Z,4.19
2018-12-13T09:18:33.173Z,4.23
2018-12-13T09:21:09.518Z,4.29
2018-12-13T09:23:45.510Z,4.32
2018-12-13T09:26:21.748Z,4.42
2018-12-13T09:28:59.805Z,4.47
2018-12-13T09:31:36.520Z,4.49
2018-12-13T09:34:13.555Z,4.53
2018-12-13T09:36:51.992Z,4.57
2018-12-13T09:39:28.404Z,4.63
2018-12-13T09:42:06.671Z,4.69
2018-12-13T09:44:43.500Z,4.73
2018-12-13T09:47:20.032Z,4.78
2018-12-13T09:49:56.403Z,4.81
2018-12-13T09:52:32.879Z,4.80
2018-12-13T09:55:13.304Z,4.79
2018-12-13T09:57:50.531Z,4.80
2018-12-13T10:00:27.632Z,4.81
2018-12-13T10:03:04.337Z,4.88
2018-12-13T10:05:41.824Z,4.91
2018-12-13T10:08:18.466Z,4.94
2018-12-13T10:10:54.829Z,5.00
2018-12-13T10:13:32.899Z,5.07
2018-12-13T10:16:10.482Z,5.09
2018-12-13T10:18:47.748Z,5.13
2018-12-13T10:21:25.440Z,5.15
2018-12-13T10:24:02.158Z,5.16
2018-12-13T10:26:40.042Z,5.17
2018-12-13T10:29:17.348Z,5.22
2018-12-13T10:31:54.352Z,5.26
2018-12-13T10:34:33.339Z,5.25
2018-12-13T10:37:12.941Z,5.22
2018-12-13T10:39:50.467Z,5.21
2018-12-13T10:42:26.266Z,5.23
2018-12-13T10:45:05.040Z,5.27
2018-12-13T10:47:43.217Z,5.30
2018-12-13T10:50:19.367Z,5.32
2018-12-13T10:52:58.996Z,5.39
2018-12-13T10:55:38.467Z,5.47
2018-12-13T10:58:14.419Z,5.49
2018-12-13T11:00:54.224Z,5.53
2018-12-13T11:03:35.771Z,5.49
2018-12-13T11:06:14.070Z,5.51
2018-12-13T11:08:51.114Z,5.50
2018-12-13T11:11:30.539Z,5.46
2018-12-13T11:14:08.068Z,5.45
2018-12-13T11:16:45.789Z,5.45
2018-12-13T11:19:23.129Z,5.44
2018-12-13T11:22:00.891Z,5.44
2018-12-13T11:24:38.682Z,5.43
2018-12-13T11:27:31.564Z,5.45
2018-12-13T11:30:37.195Z,5.49
2018-12-13T11:35:59.873Z,5.64
2018-12-13T11:38:36.233Z,5.73
2018-12-13T11:41:13.362Z,5.76
2018-12-13T11:43:52.689Z,5.70
2018-12-13T11:46:28.747Z,5.66
2018-12-13T11:49:11.923Z,5.59
2018-12-13T11:51:45.501Z,5.54
2018-12-13T11:54:48.552Z,5.48
2018-12-13T11:57:25.272Z,5.36
2018-12-13T12:00:01.124Z,5.33
2018-12-13T12:02:37.941Z,5.28
2018-12-13T12:05:17.319Z,5.27
2018-12-13T12:07:53.353Z,5.26
2018-12-13T12:10:30.409Z,5.23
2018-12-13T12:13:06.824Z,5.22
2018-12-13T12:19:00.804Z,5.14
2018-12-13T12:24:03.805Z,5.16
2018-12-13T12:26:41.492Z,5.18
2018-12-13T12:29:16.387Z,5.20
2018-12-13T12:31:52.582Z,5.20
2018-12-13T12:34:28.845Z,5.20
2018-12-13T12:37:05.219Z,5.17
2018-12-13T12:39:45.471Z,5.15
2018-12-13T12:42:23.460Z,5.10
2018-12-13T12:45:03.245Z,5.07
2018-12-13T12:47:40.038Z,5.05
2018-12-13T12:50:15.719Z,5.03
2018-12-13T12:52:52.935Z,5.02
2018-12-13T12:55:31.742Z,5.00
2018-12-13T12:58:10.797Z,4.87
2018-12-13T13:00:47.226Z,5.02
2018-12-13T13:03:24.207Z,5.03
2018-12-13T13:06:03.065Z,5.04
2018-12-13T13:08:38.914Z,5.04
2018-12-13T13:11:16.724Z,5.03
2018-12-13T13:13:54.385Z,5.03
2018-12-13T13:16:29.947Z,5.03
2018-12-13T13:19:07.149Z,5.05
2018-12-13T13:21:43.882Z,5.04
2018-12-13T13:24:19.088Z,5.03
2018-12-13T13:26:54.655Z,5.01
2018-12-13T13:29:30.555Z,5.01
2018-12-13T13:32:06.124Z,5.03
2018-12-13T13:34:43.215Z,5.03
2018-12-13T13:37:21.045Z,5.05
2018-12-13T13:39:56.943Z,5.03
2018-12-13T13:42:35.161Z,5.05
2018-12-13T13:45:13.047Z,5.04
2018-12-13T13:47:48.499Z,5.05
2018-12-13T13:50:26.096Z,5.10
2018-12-13T13:53:01.759Z,5.13
2018-12-13T13:55:36.952Z,5.23
2018-12-13T13:58:12.582Z,5.27
2018-12-13T14:00:49.151Z,5.39
2018-12-13T14:03:25.610Z,5.53
2018-12-13T14:06:02.166Z,5.61
2018-12-13T14:08:38.597Z,5.56
2018-12-13T14:11:24.493Z,5.48
2018-12-13T14:14:00.639Z,5.41
2018-12-13T14:16:36.514Z,5.34
2018-12-13T14:19:12.632Z,5.17
2018-12-13T14:21:48.594Z,5.06
2018-12-13T14:24:22.563Z,5.03
2018-12-13T14:26:59.421Z,4.79
2018-12-13T14:29:34.346Z,4.56
2018-12-13T14:34:57.547Z,4.10
2018-12-13T14:37:31.906Z,3.92
2018-12-13T14:40:09.991Z,3.75
2018-12-13T14:42:46.517Z,3.61
2018-12-13T14:45:22.353Z,3.48
2018-12-13T14:47:58.918Z,3.38
2018-12-13T14:50:33.451Z,3.27
2018-12-13T14:53:06.392Z,3.17
2018-12-13T14:55:40.684Z,3.08
2018-12-13T14:58:16.051Z,2.99
2018-12-13T15:03:21.638Z,2.88
2018-12-13T15:05:57.097Z,2.90
2018-12-13T15:08:33.310Z,2.96
2018-12-13T15:11:07.251Z,3.04
2018-12-13T15:13:42.083Z,3.11
2018-12-13T15:16:15.610Z,3.13
2018-12-13T15:18:49.513Z,3.11
2018-12-13T15:21:26.585Z,3.09
2018-12-13T15:24:03.175Z,3.06
2018-12-13T15:26:38.327Z,3.00
2018-12-13T15:29:13.733Z,2.91
2018-12-13T15:31:48.873Z,2.87
2018-12-13T15:34:25.521Z,2.89
2018-12-13T15:39:56.982Z,2.89
2018-12-13T15:42:27.328Z,2.93
2018-12-13T15:45:03.829Z,2.97
2018-12-13T15:47:39.254Z,2.98
2018-12-13T15:50:15.576Z,2.97
2018-12-13T15:52:49.745Z,2.89
2018-12-13T15:55:26.832Z,2.77
2018-12-13T15:58:02.801Z,2.63
2018-12-13T16:03:55.884Z,2.33
2018-12-13T16:06:30.678Z,2.22
2018-12-13T16:09:09.090Z,2.16
2018-12-13T16:11:44.295Z,2.09
2018-12-13T16:14:20.414Z,2.02
2018-12-13T16:16:58.431Z,1.97
2018-12-13T16:19:35.659Z,1.92
2018-12-13T16:22:14.402Z,1.87
2018-12-13T16:24:50.617Z,1.81
2018-12-13T16:27:27.363Z,1.76
2018-12-13T16:30:12.114Z,1.71
2018-12-13T16:32:51.005Z,1.63
2018-12-13T16:35:26.101Z,1.65
2018-12-13T16:38:00.259Z,1.62
2018-12-13T16:40:38.402Z,1.62
2018-12-13T16:43:14.902Z,1.61
2018-12-13T16:45:53.507Z,1.64
2018-12-13T16:48:29.956Z,1.66
2018-12-13T16:51:09.343Z,1.68
2018-12-13T16:53:44.949Z,1.70
2018-12-13T16:59:05.746Z,1.63
2018-12-13T17:01:44.855Z,1.55
2018-12-13T17:04:25.561Z,1.56
2018-12-13T17:07:03.611Z,1.51
2018-12-13T17:09:41.583Z,1.49
2018-12-13T17:12:18.133Z,1.41
2018-12-13T17:14:55.429Z,1.36
2018-12-13T17:17:35.778Z,1.29
2018-12-13T17:20:15.120Z,1.20
2018-12-13T17:22:55.369Z,1.16
2018-12-13T17:25:33.200Z,1.12
2018-12-13T17:28:11.054Z,1.07
2018-12-13T17:30:47.800Z,1.01
2018-12-13T17:36:06.148Z,0.94
2018-12-13T17:38:44.460Z,0.91
2018-12-13T17:41:22.564Z,0.91
2018-12-13T17:46:53.354Z,0.97
2018-12-13T17:50:15.351Z,1.04
2018-12-13T17:52:56.473Z,1.11
2018-12-13T17:55:29.288Z,1.18
2018-12-13T17:58:02.683Z,1.22
2018-12-13T18:00:38.743Z,1.29
2018-12-13T18:03:16.420Z,1.37
2018-12-13T18:05:53.420Z,1.48
2018-12-13T18:08:31.966Z,1.57
2018-12-13T18:11:11.682Z,1.66
2018-12-13T18:13:49.651Z,1.74
2018-12-13T18:16:27.865Z,1.81
2018-12-13T18:18:59.666Z,1.85
2018-12-13T18:21:40.638Z,1.93
2018-12-13T18:24:19.933Z,1.96
2018-12-13T18:26:57.072Z,2.01
2018-12-13T18:30:04.632Z,2.07
2018-12-13T18:32:42.487Z,2.10
2018-12-13T18:35:21.145Z,2.15
2018-12-13T18:37:59.585Z,2.20
2018-12-13T18:40:36.403Z,2.23
2018-12-13T18:43:10.523Z,2.25
2018-12-13T18:45:49.395Z,2.29
2018-12-13T18:48:27.243Z,2.33
2018-12-13T18:51:05.009Z,2.35
2018-12-13T18:53:42.079Z,2.38
2018-12-13T18:56:19.049Z,2.40
2018-12-13T18:58:57.046Z,2.43
2018-12-13T19:01:32.551Z,2.47
2018-12-13T19:04:26.367Z,2.49
2018-12-13T19:07:04.816Z,2.52
2018-12-13T19:09:42.335Z,2.57
2018-12-13T19:12:19.995Z,2.61
2018-12-13T19:14:57.542Z,2.63
2018-12-13T19:17:37.033Z,2.65
2018-12-13T19:22:50.699Z,2.71
2018-12-13T19:25:35.796Z,2.75
2018-12-13T19:28:17.748Z,2.72
2018-12-13T19:30:55.767Z,2.76
2018-12-13T19:33:33.572Z,2.77
2018-12-13T19:36:12.388Z,2.77
2018-12-13T19:50:21.068Z,2.65
2018-12-13T19:52:59.673Z,2.69
2018-12-13T19:55:34.188Z,2.71
2018-12-13T19:58:15.566Z,2.71
2018-12-13T20:00:53.875Z,2.74
2018-12-13T20:03:32.692Z,2.76
2018-12-13T20:06:16.893Z,2.78
2018-12-13T20:08:56.635Z,2.79
2018-12-13T20:11:33.532Z,2.79
2018-12-13T20:14:11.295Z,2.82
2018-12-13T20:16:47.590Z,2.83
2018-12-13T20:19:28.272Z,2.84
2018-12-13T20:22:05.136Z,2.87
2018-12-13T20:24:47.903Z,2.92
2018-12-13T20:27:26.216Z,2.95
2018-12-13T20:30:03.301Z,2.99
2018-12-13T20:32:41.189Z,3.02
2018-12-13T20:35:19.919Z,3.04
2018-12-13T20:37:56.694Z,3.04
2018-12-13T20:40:34.569Z,3.00
2018-12-13T20:43:11.314Z,2.98
2018-12-13T20:45:49.801Z,2.95
2018-12-13T20:48:27.375Z,2.92
2018-12-13T20:51:10.114Z,2.90
2018-12-13T20:53:49.100Z,2.88
2018-12-13T20:56:28.536Z,2.86
2018-12-13T20:59:07.243Z,2.81
2018-12-13T21:01:45.326Z,2.84
2018-12-13T21:04:22.434Z,2.83
2018-12-13T21:07:02.526Z,2.83
2018-12-13T21:12:27.516Z,2.84
2018-12-13T21:15:05.090Z,2.85
2018-12-13T21:17:43.808Z,2.86
2018-12-13T21:20:18.532Z,2.87
2018-12-13T21:22:55.750Z,2.87
2018-12-13T21:25:33.678Z,2.88
2018-12-13T21:28:10.067Z,2.88
2018-12-13T21:30:48.571Z,2.89
2018-12-13T21:33:27.050Z,2.90
2018-12-13T21:36:04.044Z,2.89
2018-12-13T21:38:41.779Z,2.93
2018-12-13T21:41:19.347Z,2.95
2018-12-13T21:43:55.977Z,2.93
2018-12-13T21:46:31.415Z,2.98
2018-12-13T21:49:10.973Z,2.98
2018-12-13T21:51:48.958Z,2.98
2018-12-13T21:54:27.146Z,2.99
2018-12-13T21:57:04.428Z,2.99
2018-12-13T21:59:42.502Z,3.00
2018-12-13T22:02:19.780Z,3.02
2018-12-13T22:04:58.738Z,3.01
2018-12-13T22:07:35.563Z,3.04
2018-12-13T22:10:11.619Z,3.05
2018-12-13T22:12:45.861Z,3.02
2018-12-13T22:15:21.412Z,3.06
2018-12-13T22:17:56.253Z,3.03
2018-12-13T22:20:41.238Z,3.06
2018-12-13T22:23:17.543Z,3.06
2018-12-13T22:25:55.036Z,3.08
2018-12-13T22:28:30.879Z,3.07
2018-12-13T22:31:09.695Z,3.07
2018-12-13T22:33:45.294Z,3.09
2018-12-13T22:36:18.457Z,3.09
2018-12-13T22:38:53.647Z,3.10
2018-12-13T22:41:27.034Z,3.10
2018-12-13T22:44:02.775Z,3.11
2018-12-13T22:46:38.557Z,3.09
2018-12-13T22:49:14.858Z,3.11
2018-12-13T22:51:54.186Z,3.11
2018-12-13T22:54:31.694Z,3.10
2018-12-13T22:57:07.869Z,3.06
2018-12-13T22:59:46.406Z,3.12
2018-12-13T23:02:25.231Z,3.12
2018-12-13T23:05:00.095Z,3.13
2018-12-13T23:07:34.669Z,3.13
2018-12-13T23:10:13.842Z,3.15
2018-12-13T23:12:50.851Z,3.16
2018-12-13T23:15:33.243Z,3.08
2018-12-13T23:18:10.505Z,3.16
2018-12-13T23:20:48.525Z,3.15
2018-12-13T23:26:12.152Z,3.17
2018-12-13T23:28:52.796Z,3.18
2018-12-13T23:31:28.993Z,3.18
2018-12-13T23:34:04.829Z,3.18
2018-12-13T23:36:42.375Z,3.19
2018-12-13T23:39:20.677Z,3.20
2018-12-13T23:41:58.374Z,3.20
2018-12-13T23:44:33.602Z,3.21
2018-12-13T23:47:09.803Z,3.23
2018-12-13T23:49:47.485Z,3.24
2018-12-13T23:52:25.203Z,3.24
2018-12-13T23:55:02.295Z,3.24
2018-12-13T23:57:40.000Z,3.20
